Time;durP1;ratioP1;P1;durP2;ratioP2;P2;SDS_P1;SDS_P2;PMS_P1;PMS_P2;Temp;Humidity;BMP_temperature;BMP_pressure;BME280_temperature;BME280_humidity;BME280_pressure;Samples;Min_cycle;Max_cycle;Signal;HPM_P1;HPM_P2
2020/12/21 00:01:40;;;;;;;7.20;4.20;;;;;;;;;;5068609;28;20024;-51
2020/12/21 00:04:06;;;;;;;6.13;3.92;;;;;;;;;;5069003;28;20406;-49
2020/12/21 00:06:32;;;;;;;4.97;3.40;;;;;;;;;;5070261;28;20025;-50
2020/12/21 00:08:58;;;;;;;5.55;3.50;;;;;;;;;;5068868;28;20032;-51
2020/12/21 00:11:31;;;;;;;6.32;4.28;;;;;;;;;;5068644;28;20024;-49
2020/12/21 00:13:57;;;;;;;6.88;4.60;;;;;;;;;;5068350;28;20484;-50
2020/12/21 00:16:23;;;;;;;7.57;4.60;;;;;;;;;;5068791;28;20115;-51
2020/12/21 00:18:49;;;;;;;7.65;4.72;;;;;;;;;;5067084;28;20468;-51
2020/12/21 00:21:15;;;;;;;6.93;4.10;;;;;;;;;;5067011;28;20027;-51
2020/12/21 00:23:41;;;;;;;7.88;4.57;;;;;;;;;;5080406;28;20024;-51
2020/12/21 00:26:08;;;;;;;5.88;3.90;;;;;;;;;;5088891;28;20449;-53
2020/12/21 00:28:34;;;;;;;3.97;2.97;;;;;;;;;;5088612;28;20027;-52
2020/12/21 00:31:00;;;;;;;3.72;2.70;;;;;;;;;;5088521;28;20106;-49
2020/12/21 00:33:31;;;;;;;2.13;1.80;;;;;;;;;;5078810;28;20692;-49
2020/12/21 00:35:57;;;;;;;2.25;1.80;;;;;;;;;;5068220;28;20108;-50
2020/12/21 00:38:23;;;;;;;2.03;1.50;;;;;;;;;;5068350;28;20039;-52
2020/12/21 00:40:49;;;;;;;2.00;1.80;;;;;;;;;;5067555;28;20036;-51
2020/12/21 00:43:15;;;;;;;2.20;2.00;;;;;;;;;;5068309;28;20070;-52
2020/12/21 00:45:41;;;;;;;3.63;2.63;;;;;;;;;;5067458;28;20792;-52
2020/12/21 00:48:08;;;;;;;4.32;2.85;;;;;;;;;;5067878;28;20515;-53
2020/12/21 00:50:34;;;;;;;7.63;3.80;;;;;;;;;;5067777;28;20029;-52
2020/12/21 00:53:00;;;;;;;7.35;3.85;;;;;;;;;;5067233;28;20098;-51
2020/12/21 00:55:26;;;;;;;7.82;4.10;;;;;;;;;;5068154;28;20499;-53
2020/12/21 00:57:52;;;;;;;7.30;4.07;;;;;;;;;;5068103;28;20025;-49
2020/12/21 01:00:18;;;;;;;8.98;4.45;;;;;;;;;;5067562;28;20028;-50
2020/12/21 01:02:45;;;;;;;7.32;4.28;;;;;;;;;;5067852;28;20078;-50
2020/12/21 01:05:11;;;;;;;7.60;4.32;;;;;;;;;;5068402;28;20071;-51
2020/12/21 01:07:37;;;;;;;4.97;3.50;;;;;;;;;;5067423;28;20439;-52
2020/12/21 01:10:04;;;;;;;5.95;4.03;;;;;;;;;;5067435;28;20041;-50
2020/12/21 01:12:30;;;;;;;4.32;3.03;;;;;;;;;;5067382;28;20028;-50
2020/12/21 01:14:56;;;;;;;4.75;3.40;;;;;;;;;;5067471;28;20370;-50
2020/12/21 01:17:22;;;;;;;4.38;3.22;;;;;;;;;;5067611;28;20021;-49
2020/12/21 01:19:48;;;;;;;3.97;2.78;;;;;;;;;;5076624;28;20043;-50
2020/12/21 01:22:14;;;;;;;3.92;2.80;;;;;;;;;;5087511;28;20153;-50
2020/12/21 01:24:41;;;;;;;5.45;3.33;;;;;;;;;;5088254;28;20032;-50
2020/12/21 01:27:08;;;;;;;4.20;2.80;;;;;;;;;;5081851;28;20052;-52
2020/12/21 01:29:34;;;;;;;3.83;2.70;;;;;;;;;;5087176;28;20085;-52
2020/12/21 01:32:00;;;;;;;3.25;2.22;;;;;;;;;;5086723;28;20028;-53
2020/12/21 01:34:26;;;;;;;3.25;2.67;;;;;;;;;;5087418;28;20020;-52
2020/12/21 01:36:52;;;;;;;3.20;1.92;;;;;;;;;;5075713;28;20491;-52
2020/12/21 01:39:18;;;;;;;3.13;2.28;;;;;;;;;;5067337;28;20094;-53
2020/12/21 01:41:44;;;;;;;4.15;2.50;;;;;;;;;;5067398;28;20020;-53
2020/12/21 01:44:10;;;;;;;3.17;2.38;;;;;;;;;;5067824;28;20108;-51
2020/12/21 01:46:37;;;;;;;4.50;2.60;;;;;;;;;;5066768;28;20024;-53
2020/12/21 01:49:03;;;;;;;4.65;2.63;;;;;;;;;;5066452;28;20139;-53
2020/12/21 01:51:29;;;;;;;3.53;2.58;;;;;;;;;;5066314;28;20028;-52
2020/12/21 01:53:56;;;;;;;5.15;3.20;;;;;;;;;;5066809;28;20661;-52
2020/12/21 01:56:23;;;;;;;4.97;3.03;;;;;;;;;;5066551;28;20024;-50
2020/12/21 01:58:50;;;;;;;3.78;2.75;;;;;;;;;;5066765;28;20081;-49
2020/12/21 02:01:16;;;;;;;4.22;2.83;;;;;;;;;;5066657;28;20081;-48
2020/12/21 02:03:43;;;;;;;5.38;3.10;;;;;;;;;;5066756;28;20111;-48
2020/12/21 02:06:09;;;;;;;5.82;3.10;;;;;;;;;;5066379;28;20021;-47
2020/12/21 02:08:35;;;;;;;4.45;2.90;;;;;;;;;;5066485;28;20043;-48
2020/12/21 02:11:01;;;;;;;3.00;2.42;;;;;;;;;;5066230;28;20493;-49
2020/12/21 02:13:27;;;;;;;2.97;2.22;;;;;;;;;;5066735;28;20564;-51
2020/12/21 02:15:54;;;;;;;3.67;2.60;;;;;;;;;;5066506;28;20436;-52
2020/12/21 02:18:20;;;;;;;3.42;2.70;;;;;;;;;;5066085;28;20033;-51
2020/12/21 02:20:46;;;;;;;3.63;2.63;;;;;;;;;;5066367;28;20107;-52
2020/12/21 02:23:12;;;;;;;3.22;2.33;;;;;;;;;;5067084;28;20033;-51
2020/12/21 02:25:38;;;;;;;3.70;2.15;;;;;;;;;;5065864;28;20033;-52
2020/12/21 02:28:05;;;;;;;5.07;3.22;;;;;;;;;;5082513;28;20032;-52
2020/12/21 02:30:31;;;;;;;5.05;3.30;;;;;;;;;;5086473;28;20026;-53
2020/12/21 02:32:57;;;;;;;4.50;2.80;;;;;;;;;;5086091;28;20016;-49
2020/12/21 02:35:23;;;;;;;4.25;2.95;;;;;;;;;;5086498;28;20556;-52
2020/12/21 02:37:49;;;;;;;4.80;3.15;;;;;;;;;;5071131;28;20033;-51
2020/12/21 02:40:15;;;;;;;4.50;2.97;;;;;;;;;;5066125;28;20082;-53
2020/12/21 02:42:41;;;;;;;6.72;3.13;;;;;;;;;;5075890;28;20509;-50
2020/12/21 02:45:07;;;;;;;5.10;3.30;;;;;;;;;;5081836;28;20949;-51
2020/12/21 02:47:34;;;;;;;5.57;3.38;;;;;;;;;;5065626;28;20103;-49
2020/12/21 02:50:00;;;;;;;5.13;3.33;;;;;;;;;;5066178;28;20035;-51
2020/12/21 02:52:26;;;;;;;5.30;3.55;;;;;;;;;;5065846;28;20617;-49
2020/12/21 02:54:52;;;;;;;6.40;3.75;;;;;;;;;;5065513;28;20039;-49
2020/12/21 02:57:18;;;;;;;4.40;3.03;;;;;;;;;;5066050;28;20556;-49
2020/12/21 02:59:44;;;;;;;3.47;2.50;;;;;;;;;;5065940;28;20029;-49
2020/12/21 03:02:10;;;;;;;3.95;2.67;;;;;;;;;;5066472;28;20059;-51
2020/12/21 03:04:36;;;;;;;3.80;2.47;;;;;;;;;;5065082;28;20424;-49
2020/12/21 03:07:02;;;;;;;3.53;2.55;;;;;;;;;;5066153;28;20390;-49
2020/12/21 03:09:29;;;;;;;2.38;1.67;;;;;;;;;;5069363;28;20111;-51
2020/12/21 03:11:55;;;;;;;3.55;2.53;;;;;;;;;;5069494;28;20107;-50
2020/12/21 03:14:21;;;;;;;3.08;2.25;;;;;;;;;;5069978;28;20024;-50
2020/12/21 03:16:47;;;;;;;2.45;1.95;;;;;;;;;;5068921;28;20624;-50
2020/12/21 03:19:13;;;;;;;2.65;1.98;;;;;;;;;;5070467;28;20028;-51
2020/12/21 03:21:39;;;;;;;2.85;2.00;;;;;;;;;;5069176;28;20494;-52
2020/12/21 03:24:05;;;;;;;2.42;1.85;;;;;;;;;;5070016;28;20028;-50
2020/12/21 03:26:31;;;;;;;2.38;1.98;;;;;;;;;;5069966;28;20101;-53
2020/12/21 03:28:57;;;;;;;2.15;1.80;;;;;;;;;;5069192;28;20025;-51
2020/12/21 03:31:23;;;;;;;3.05;2.10;;;;;;;;;;5069395;28;20028;-51
2020/12/21 03:33:49;;;;;;;1.98;1.70;;;;;;;;;;5068820;28;20052;-50
2020/12/21 03:36:16;;;;;;;2.42;1.95;;;;;;;;;;5069532;28;20025;-49
2020/12/21 03:38:42;;;;;;;3.30;2.30;;;;;;;;;;5069873;28;20025;-50
2020/12/21 03:41:08;;;;;;;1.45;1.25;;;;;;;;;;5069530;28;20116;-50
2020/12/21 03:43:34;;;;;;;2.10;1.50;;;;;;;;;;5068861;28;20032;-48
2020/12/21 03:46:00;;;;;;;2.65;1.75;;;;;;;;;;5069130;28;20490;-51
2020/12/21 03:48:26;;;;;;;1.67;1.30;;;;;;;;;;5069440;28;20025;-49
2020/12/21 03:50:52;;;;;;;1.80;1.45;;;;;;;;;;5068798;28;20024;-50
2020/12/21 03:53:18;;;;;;;2.22;1.60;;;;;;;;;;5068718;28;20104;-48
2020/12/21 03:55:44;;;;;;;3.63;1.80;;;;;;;;;;5069589;28;20032;-48
2020/12/21 03:58:10;;;;;;;5.75;3.50;;;;;;;;;;5069502;28;20486;-49
2020/12/21 04:00:36;;;;;;;5.85;3.53;;;;;;;;;;5068422;28;20024;-49
2020/12/21 04:03:02;;;;;;;4.03;2.28;;;;;;;;;;5069056;28;20032;-50
2020/12/21 04:05:28;;;;;;;3.33;1.88;;;;;;;;;;5068952;28;20424;-50
2020/12/21 04:07:54;;;;;;;2.17;1.65;;;;;;;;;;5068945;28;20031;-50
2020/12/21 04:10:20;;;;;;;2.13;1.35;;;;;;;;;;5068621;28;20415;-49
2020/12/21 04:12:47;;;;;;;1.45;1.23;;;;;;;;;;5068464;28;20040;-53
2020/12/21 04:15:13;;;;;;;1.83;1.27;;;;;;;;;;5069521;28;20024;-49
2020/12/21 04:17:39;;;;;;;1.77;1.30;;;;;;;;;;5068562;28;20147;-48
2020/12/21 04:20:05;;;;;;;1.00;0.90;;;;;;;;;;5068450;28;20607;-49
2020/12/21 04:22:31;;;;;;;1.38;1.10;;;;;;;;;;5068877;28;20020;-50
2020/12/21 04:24:57;;;;;;;1.50;1.15;;;;;;;;;;5068718;28;20509;-49
2020/12/21 04:27:23;;;;;;;1.77;1.20;;;;;;;;;;5068432;28;20058;-50
2020/12/21 04:29:49;;;;;;;1.25;1.13;;;;;;;;;;5067736;28;20032;-49
2020/12/21 04:32:15;;;;;;;1.50;1.20;;;;;;;;;;5068525;28;20024;-53
2020/12/21 04:34:41;;;;;;;2.45;1.77;;;;;;;;;;5068541;28;20505;-51
2020/12/21 04:37:07;;;;;;;3.03;2.08;;;;;;;;;;5068254;28;20035;-51
2020/12/21 04:39:33;;;;;;;2.40;1.77;;;;;;;;;;5067209;28;20115;-52
2020/12/21 04:42:00;;;;;;;2.67;2.00;;;;;;;;;;5083470;28;20555;-49
2020/12/21 04:44:26;;;;;;;1.83;1.40;;;;;;;;;;5086574;28;20024;-49
2020/12/21 04:46:53;;;;;;;5.05;1.75;;;;;;;;;;5076454;28;20111;-51
2020/12/21 04:49:20;;;;;;;2.25;1.42;;;;;;;;;;5087147;28;20020;-51
2020/12/21 04:51:46;;;;;;;1.50;1.30;;;;;;;;;;5068027;28;20105;-52
2020/12/21 04:54:13;;;;;;;1.15;1.05;;;;;;;;;;5069214;28;20389;-50
2020/12/21 04:56:41;;;;;;;1.20;1.10;;;;;;;;;;5068224;28;20590;-52
2020/12/21 04:59:07;;;;;;;1.23;1.10;;;;;;;;;;5067297;28;20490;-50
2020/12/21 05:01:33;;;;;;;2.83;1.58;;;;;;;;;;5074398;28;20055;-51
2020/12/21 05:03:59;;;;;;;2.38;1.48;;;;;;;;;;5088148;28;20097;-52
2020/12/21 05:06:25;;;;;;;1.77;1.25;;;;;;;;;;5085644;28;20071;-53
2020/12/21 05:09:07;;;;;;;2.80;1.80;;;;;;;;;;5066721;28;20020;-51
2020/12/21 05:11:34;;;;;;;3.03;1.77;;;;;;;;;;5062917;28;20919;-51
2020/12/21 05:14:10;;;;;;;3.33;2.47;;;;;;;;;;5066164;28;20096;-52
2020/12/21 05:16:36;;;;;;;4.38;2.80;;;;;;;;;;5072909;28;20035;-52
2020/12/21 05:19:03;;;;;;;3.17;2.10;;;;;;;;;;5078775;28;20054;-53
2020/12/21 05:21:30;;;;;;;4.05;2.53;;;;;;;;;;5067546;28;20086;-50
2020/12/21 05:23:59;;;;;;;3.45;2.22;;;;;;;;;;5076342;28;20027;-52
2020/12/21 05:26:29;;;;;;;2.75;2.08;;;;;;;;;;5086731;28;20418;-50
2020/12/21 05:28:56;;;;;;;2.22;1.83;;;;;;;;;;5087429;28;20028;-50
2020/12/21 05:31:23;;;;;;;3.95;2.47;;;;;;;;;;5085662;28;20062;-50
2020/12/21 05:33:49;;;;;;;2.10;1.67;;;;;;;;;;5087265;28;20024;-50
2020/12/21 05:36:16;;;;;;;2.80;2.20;;;;;;;;;;5087641;28;20024;-51
2020/12/21 05:38:43;;;;;;;1.95;1.65;;;;;;;;;;5068244;28;20028;-54
2020/12/21 05:41:16;;;;;;;1.88;1.63;;;;;;;;;;5066718;28;20077;-53
2020/12/21 05:43:43;;;;;;;2.03;1.70;;;;;;;;;;5067508;28;20046;-52
2020/12/21 05:46:12;;;;;;;2.38;1.65;;;;;;;;;;5066963;28;20043;-52
2020/12/21 05:48:42;;;;;;;1.45;1.33;;;;;;;;;;5067541;28;20055;-52
2020/12/21 05:51:09;;;;;;;2.55;1.77;;;;;;;;;;5068101;28;20034;-52
2020/12/21 05:53:39;;;;;;;2.97;2.20;;;;;;;;;;5066767;28;20012;-51
2020/12/21 05:56:05;;;;;;;3.65;2.58;;;;;;;;;;5067153;28;20032;-50
2020/12/21 05:58:32;;;;;;;4.20;2.90;;;;;;;;;;5066803;28;20028;-49
2020/12/21 06:01:03;;;;;;;4.38;3.38;;;;;;;;;;5066438;28;20146;-51
2020/12/21 06:03:39;;;;;;;5.45;3.65;;;;;;;;;;5066770;28;20674;-49
2020/12/21 06:06:10;;;;;;;4.07;2.72;;;;;;;;;;5066751;28;20427;-52
2020/12/21 06:08:36;;;;;;;3.65;2.50;;;;;;;;;;5066007;28;20064;-50
2020/12/21 06:11:09;;;;;;;3.70;2.58;;;;;;;;;;5066043;28;20043;-49
2020/12/21 06:13:37;;;;;;;2.85;2.28;;;;;;;;;;5066118;28;20695;-53
2020/12/21 06:16:04;;;;;;;3.42;2.65;;;;;;;;;;5066394;28;20032;-53
2020/12/21 06:18:30;;;;;;;3.67;2.60;;;;;;;;;;5066174;28;20044;-51
2020/12/21 06:20:56;;;;;;;3.85;2.55;;;;;;;;;;5065741;28;20410;-52
2020/12/21 06:23:32;;;;;;;6.40;2.78;;;;;;;;;;5066371;28;20020;-52
2020/12/21 06:26:07;;;;;;;3.55;2.45;;;;;;;;;;5066299;28;20036;-53
2020/12/21 06:28:33;;;;;;;4.20;2.60;;;;;;;;;;5065877;28;20020;-53
2020/12/21 06:31:10;;;;;;;4.13;2.92;;;;;;;;;;5065816;28;20181;-51
2020/12/21 06:33:39;;;;;;;3.80;2.50;;;;;;;;;;5072519;28;20027;-49
2020/12/21 06:36:05;;;;;;;5.15;3.20;;;;;;;;;;5070417;28;20306;-51
2020/12/21 06:38:45;;;;;;;6.97;3.33;;;;;;;;;;5066199;28;20071;-52
2020/12/21 06:41:27;;;;;;;4.13;2.70;;;;;;;;;;5084933;28;20115;-51
2020/12/21 06:43:53;;;;;;;5.43;2.95;;;;;;;;;;5084376;28;21056;-52
2020/12/21 06:46:20;;;;;;;4.00;2.70;;;;;;;;;;5084218;28;20071;-51
2020/12/21 06:48:49;;;;;;;3.60;2.22;;;;;;;;;;5086286;28;20028;-52
2020/12/21 06:51:18;;;;;;;3.08;2.10;;;;;;;;;;5084212;28;20123;-52
2020/12/21 06:53:56;;;;;;;3.63;2.67;;;;;;;;;;5075029;28;20027;-50
2020/12/21 06:56:26;;;;;;;5.70;3.35;;;;;;;;;;5085874;28;20035;-50
2020/12/21 06:58:52;;;;;;;4.25;2.88;;;;;;;;;;5066825;28;20024;-50
2020/12/21 07:01:18;;;;;;;4.47;3.00;;;;;;;;;;5065795;28;20078;-50
2020/12/21 07:03:45;;;;;;;4.75;2.90;;;;;;;;;;5066257;28;20033;-47
2020/12/21 07:06:12;;;;;;;4.63;3.22;;;;;;;;;;5066383;28;20024;-47
2020/12/21 07:08:38;;;;;;;4.13;2.95;;;;;;;;;;5065500;28;20028;-47
2020/12/21 07:11:04;;;;;;;5.70;3.50;;;;;;;;;;5083745;28;20085;-51
2020/12/21 07:13:33;;;;;;;4.82;3.10;;;;;;;;;;5085753;28;20335;-48
2020/12/21 07:16:01;;;;;;;5.18;3.22;;;;;;;;;;5084781;28;20020;-48
2020/12/21 07:18:27;;;;;;;4.93;2.92;;;;;;;;;;5085790;28;20020;-48
2020/12/21 07:20:54;;;;;;;5.47;2.97;;;;;;;;;;5086011;28;20819;-50
2020/12/21 07:23:20;;;;;;;6.00;2.60;;;;;;;;;;5086067;28;20137;-52
2020/12/21 07:25:52;;;;;;;6.95;3.45;;;;;;;;;;5085877;28;20073;-51
2020/12/21 07:28:22;;;;;;;6.38;3.40;;;;;;;;;;5085920;28;20032;-51
2020/12/21 07:30:48;;;;;;;5.55;3.33;;;;;;;;;;5085609;28;20051;-49
2020/12/21 07:33:14;;;;;;;4.63;3.05;;;;;;;;;;5086471;28;20383;-49
2020/12/21 07:35:41;;;;;;;3.80;2.65;;;;;;;;;;5084869;28;20390;-51
2020/12/21 07:38:10;;;;;;;3.67;2.50;;;;;;;;;;5085878;28;20091;-54
2020/12/21 07:40:37;;;;;;;2.85;2.00;;;;;;;;;;5085373;28;20020;-48
2020/12/21 07:43:05;;;;;;;4.15;2.60;;;;;;;;;;5085324;28;20046;-49
2020/12/21 07:45:34;;;;;;;3.13;2.20;;;;;;;;;;5085245;28;20032;-51
2020/12/21 07:48:00;;;;;;;3.53;2.17;;;;;;;;;;5085703;28;20031;-51
2020/12/21 07:50:26;;;;;;;2.92;2.13;;;;;;;;;;5084813;28;20028;-50
2020/12/21 07:52:55;;;;;;;2.78;1.90;;;;;;;;;;5084572;28;20020;-51
2020/12/21 07:55:21;;;;;;;3.53;2.20;;;;;;;;;;5087836;28;20024;-48
2020/12/21 07:57:47;;;;;;;4.80;2.58;;;;;;;;;;5087862;28;20547;-47
2020/12/21 08:00:13;;;;;;;5.70;2.65;;;;;;;;;;5088965;28;20032;-50
2020/12/21 08:02:40;;;;;;;4.68;3.17;;;;;;;;;;5088801;28;20032;-48
2020/12/21 08:05:17;;;;;;;5.65;2.75;;;;;;;;;;5086294;28;20028;-48
2020/12/21 08:07:44;;;;;;;7.28;3.38;;;;;;;;;;5088010;28;20031;-49
2020/12/21 08:10:12;;;;;;;8.45;3.85;;;;;;;;;;5087552;28;20032;-51
2020/12/21 08:12:38;;;;;;;6.28;3.45;;;;;;;;;;5088749;28;20024;-47
2020/12/21 08:15:06;;;;;;;4.78;2.63;;;;;;;;;;5088887;28;20036;-52
2020/12/21 08:17:32;;;;;;;4.80;3.00;;;;;;;;;;5088784;28;20536;-48
2020/12/21 08:19:59;;;;;;;4.05;2.92;;;;;;;;;;5088752;28;20553;-50
2020/12/21 08:22:29;;;;;;;4.13;3.20;;;;;;;;;;5088835;28;20021;-50
2020/12/21 08:25:02;;;;;;;3.35;2.60;;;;;;;;;;5088678;28;20420;-52
2020/12/21 08:27:28;;;;;;;3.25;2.45;;;;;;;;;;5088732;28;20577;-50
2020/12/21 08:30:06;;;;;;;3.13;2.28;;;;;;;;;;5068161;28;20040;-48
2020/12/21 08:32:32;;;;;;;3.70;2.53;;;;;;;;;;5068509;28;20374;-50
2020/12/21 08:34:58;;;;;;;3.10;2.35;;;;;;;;;;5085549;28;20066;-51
2020/12/21 08:37:25;;;;;;;2.83;2.30;;;;;;;;;;5087528;28;20047;-50
2020/12/21 08:39:51;;;;;;;3.28;2.05;;;;;;;;;;5088258;28;20635;-51
2020/12/21 08:42:17;;;;;;;3.13;2.25;;;;;;;;;;5089267;28;20024;-51
2020/12/21 08:44:43;;;;;;;2.83;2.08;;;;;;;;;;5087868;28;20028;-51
2020/12/21 08:47:09;;;;;;;3.60;2.40;;;;;;;;;;5087468;28;20028;-50
2020/12/21 08:49:35;;;;;;;2.80;2.05;;;;;;;;;;5087502;28;20062;-52
2020/12/21 08:52:03;;;;;;;3.08;1.88;;;;;;;;;;5088069;28;20065;-50
2020/12/21 08:54:30;;;;;;;1.60;1.27;;;;;;;;;;5087942;28;20125;-51
2020/12/21 08:56:59;;;;;;;2.72;1.80;;;;;;;;;;5076081;28;20056;-51
2020/12/21 08:59:25;;;;;;;2.97;2.10;;;;;;;;;;5086129;28;20024;-51
2020/12/21 09:01:51;;;;;;;2.47;1.50;;;;;;;;;;5082773;28;20636;-51
2020/12/21 09:04:18;;;;;;;1.80;1.40;;;;;;;;;;5068184;28;20040;-51
2020/12/21 09:06:44;;;;;;;2.05;1.52;;;;;;;;;;5065831;28;20103;-51
2020/12/21 09:09:10;;;;;;;1.83;1.40;;;;;;;;;;5066839;28;20453;-50
2020/12/21 09:11:36;;;;;;;3.13;1.73;;;;;;;;;;5096060;28;20145;-49
2020/12/21 09:14:03;;;;;;;3.45;2.33;;;;;;;;;;5100821;28;20044;-52
2020/12/21 09:16:29;;;;;;;5.85;2.60;;;;;;;;;;5076227;28;20025;-51
2020/12/21 09:18:56;;;;;;;6.78;2.78;;;;;;;;;;5072829;28;20147;-49
2020/12/21 09:21:29;;;;;;;9.35;3.58;;;;;;;;;;5083343;28;20104;-49
2020/12/21 09:23:56;;;;;;;6.32;3.72;;;;;;;;;;5073854;28;20028;-50
2020/12/21 09:26:23;;;;;;;5.53;2.45;;;;;;;;;;5076931;28;20094;-51
2020/12/21 09:28:50;;;;;;;4.45;2.72;;;;;;;;;;5070237;28;20094;-49
2020/12/21 09:31:16;;;;;;;3.67;2.03;;;;;;;;;;5073118;28;20043;-52
2020/12/21 09:33:42;;;;;;;4.43;2.38;;;;;;;;;;5087042;28;20103;-53
2020/12/21 09:36:09;;;;;;;2.65;1.80;;;;;;;;;;5079506;28;20428;-51
2020/12/21 09:38:35;;;;;;;4.30;2.10;;;;;;;;;;5067506;28;20043;-54
2020/12/21 09:41:01;;;;;;;2.55;1.80;;;;;;;;;;5064929;28;20414;-52
2020/12/21 09:43:28;;;;;;;3.15;1.83;;;;;;;;;;5074155;28;20528;-52
2020/12/21 09:45:54;;;;;;;2.22;1.55;;;;;;;;;;5084356;28;20118;-49
2020/12/21 09:48:20;;;;;;;2.50;2.22;;;;;;;;;;5084290;28;20498;-51
2020/12/21 09:50:46;;;;;;;3.05;1.70;;;;;;;;;;5085416;28;20032;-50
2020/12/21 09:53:12;;;;;;;4.07;1.80;;;;;;;;;;5085749;28;20024;-48
2020/12/21 09:55:38;;;;;;;1.98;1.48;;;;;;;;;;5078761;28;20542;-50
2020/12/21 09:58:05;;;;;;;2.00;1.50;;;;;;;;;;5078012;28;20024;-49
2020/12/21 10:00:32;;;;;;;2.13;1.80;;;;;;;;;;5070439;28;20706;-47
2020/12/21 10:02:58;;;;;;;3.08;1.55;;;;;;;;;;5079721;28;20466;-48
2020/12/21 10:05:24;;;;;;;2.10;1.40;;;;;;;;;;5075545;28;20363;-47
2020/12/21 10:07:50;;;;;;;2.97;1.73;;;;;;;;;;5086644;28;20430;-50
2020/12/21 10:10:16;;;;;;;2.67;1.85;;;;;;;;;;5074495;28;20032;-46
2020/12/21 10:12:42;;;;;;;3.47;1.83;;;;;;;;;;5067607;28;20067;-49
2020/12/21 10:15:08;;;;;;;3.53;1.58;;;;;;;;;;5066980;28;20028;-46
2020/12/21 10:17:34;;;;;;;2.30;1.50;;;;;;;;;;5071405;28;20648;-50
2020/12/21 10:20:00;;;;;;;3.55;1.40;;;;;;;;;;5077112;28;20044;-47
2020/12/21 10:22:27;;;;;;;2.25;1.63;;;;;;;;;;5065855;28;20021;-51
2020/12/21 10:24:53;;;;;;;2.47;1.52;;;;;;;;;;5087214;28;20546;-47
2020/12/21 10:27:19;;;;;;;2.20;1.33;;;;;;;;;;5073812;28;20107;-47
2020/12/21 10:29:45;;;;;;;1.80;1.35;;;;;;;;;;5077868;28;20028;-47
2020/12/21 10:32:12;;;;;;;2.08;1.60;;;;;;;;;;5070809;28;20049;-50
2020/12/21 10:34:38;;;;;;;2.47;1.40;;;;;;;;;;5075995;28;20457;-51
2020/12/21 10:37:04;;;;;;;2.45;1.50;;;;;;;;;;5086543;28;20024;-51
2020/12/21 10:39:30;;;;;;;2.75;1.77;;;;;;;;;;5080960;28;20105;-51
2020/12/21 10:41:56;;;;;;;2.90;1.70;;;;;;;;;;5071866;28;20077;-52
2020/12/21 10:44:22;;;;;;;3.03;1.73;;;;;;;;;;5083168;28;20039;-49
2020/12/21 10:46:48;;;;;;;2.83;1.60;;;;;;;;;;5066124;28;20695;-51
2020/12/21 10:49:14;;;;;;;2.28;1.60;;;;;;;;;;5066266;28;20029;-48
2020/12/21 10:51:40;;;;;;;2.00;1.58;;;;;;;;;;5067305;28;20033;-48
2020/12/21 10:54:06;;;;;;;4.43;1.60;;;;;;;;;;5066018;28;20482;-49
2020/12/21 10:56:32;;;;;;;3.40;1.50;;;;;;;;;;5066424;28;20107;-49
2020/12/21 10:58:58;;;;;;;2.22;1.60;;;;;;;;;;5070386;28;20103;-50
2020/12/21 11:01:24;;;;;;;1.95;1.52;;;;;;;;;;5568936;22;20048;-48
2020/12/21 11:03:51;;;;;;;2.95;1.80;;;;;;;;;;5062192;28;20650;-50
2020/12/21 11:06:21;;;;;;;2.75;1.63;;;;;;;;;;5064399;28;20047;-50
2020/12/21 11:08:48;;;;;;;2.55;1.90;;;;;;;;;;5062915;28;20496;-51
2020/12/21 11:11:14;;;;;;;1.95;1.38;;;;;;;;;;5065155;28;20067;-52
2020/12/21 11:13:42;;;;;;;3.13;2.00;;;;;;;;;;5065571;28;20028;-47
2020/12/21 11:16:11;;;;;;;2.15;1.50;;;;;;;;;;5063895;28;20020;-50
2020/12/21 11:18:37;;;;;;;2.45;1.42;;;;;;;;;;5059099;28;20112;-47
2020/12/21 11:21:04;;;;;;;1.63;1.48;;;;;;;;;;5058414;28;20028;-52
2020/12/21 11:23:30;;;;;;;2.53;1.50;;;;;;;;;;5063524;28;20115;-53
2020/12/21 11:25:56;;;;;;;2.40;1.60;;;;;;;;;;5062918;28;20028;-52
2020/12/21 11:28:23;;;;;;;1.90;1.58;;;;;;;;;;5064302;28;20685;-53
2020/12/21 11:30:49;;;;;;;3.05;1.60;;;;;;;;;;5069190;28;20060;-51
2020/12/21 11:33:15;;;;;;;5.40;2.10;;;;;;;;;;5069457;28;20024;-50
2020/12/21 11:35:41;;;;;;;3.35;1.45;;;;;;;;;;5067215;28;20020;-50
2020/12/21 11:38:07;;;;;;;3.15;1.27;;;;;;;;;;5069446;28;20052;-49
2020/12/21 11:40:34;;;;;;;1.95;1.38;;;;;;;;;;5058958;28;20059;-52
2020/12/21 11:43:00;;;;;;;2.45;1.23;;;;;;;;;;5067118;28;20054;-50
2020/12/21 11:45:26;;;;;;;1.95;0.95;;;;;;;;;;5069297;28;20128;-51
2020/12/21 11:47:52;;;;;;;0.80;0.80;;;;;;;;;;5069114;28;20881;-52
2020/12/21 11:50:18;;;;;;;1.00;0.90;;;;;;;;;;5065671;28;20461;-51
2020/12/21 11:52:45;;;;;;;0.68;0.68;;;;;;;;;;5059589;28;20079;-53
2020/12/21 11:55:12;;;;;;;1.15;0.80;;;;;;;;;;5057335;28;20024;-50
2020/12/21 11:57:38;;;;;;;2.28;1.02;;;;;;;;;;5067745;28;20036;-50
2020/12/21 12:00:05;;;;;;;1.25;1.00;;;;;;;;;;5068357;28;20039;-53
2020/12/21 12:02:31;;;;;;;1.50;1.20;;;;;;;;;;5069193;28;20032;-52
2020/12/21 12:04:57;;;;;;;1.45;1.17;;;;;;;;;;5068817;28;20547;-53
2020/12/21 12:07:23;;;;;;;1.67;1.30;;;;;;;;;;5068876;28;20031;-52
2020/12/21 12:09:49;;;;;;;1.23;0.98;;;;;;;;;;5065501;28;20029;-51
2020/12/21 12:12:15;;;;;;;1.77;1.20;;;;;;;;;;5066178;28;20435;-53
2020/12/21 12:14:41;;;;;;;1.35;1.20;;;;;;;;;;5066925;28;20021;-50
2020/12/21 12:17:07;;;;;;;2.05;1.40;;;;;;;;;;5067234;28;20040;-50
2020/12/21 12:19:33;;;;;;;1.20;1.10;;;;;;;;;;5067007;28;20032;-54
2020/12/21 12:22:00;;;;;;;1.52;1.30;;;;;;;;;;5067168;28;20144;-51
2020/12/21 12:24:27;;;;;;;2.38;1.23;;;;;;;;;;5066206;28;20037;-51
2020/12/21 12:26:53;;;;;;;3.58;1.13;;;;;;;;;;5062316;28;20039;-50
2020/12/21 12:29:21;;;;;;;2.97;1.80;;;;;;;;;;5065256;28;20024;-49
2020/12/21 12:31:47;;;;;;;1.80;1.60;;;;;;;;;;5065204;28;20039;-53
2020/12/21 12:34:13;;;;;;;2.33;1.27;;;;;;;;;;5067015;28;20104;-50
2020/12/21 12:36:41;;;;;;;1.70;1.13;;;;;;;;;;5066394;28;20028;-49
2020/12/21 12:39:08;;;;;;;2.05;1.17;;;;;;;;;;5066867;28;20069;-49
2020/12/21 12:41:38;;;;;;;3.25;1.48;;;;;;;;;;5064968;28;20438;-53
2020/12/21 12:44:04;;;;;;;2.20;1.63;;;;;;;;;;5066196;28;20036;-53
2020/12/21 12:46:30;;;;;;;1.77;1.42;;;;;;;;;;5084379;28;20031;-51
2020/12/21 12:48:56;;;;;;;2.28;1.20;;;;;;;;;;5086934;28;20040;-50
2020/12/21 12:51:22;;;;;;;2.42;1.75;;;;;;;;;;5086796;28;20085;-50
2020/12/21 12:53:48;;;;;;;2.42;1.67;;;;;;;;;;5086520;28;20024;-54
2020/12/21 12:56:14;;;;;;;3.55;1.85;;;;;;;;;;5086269;28;20024;-55
2020/12/21 12:58:43;;;;;;;2.40;1.60;;;;;;;;;;5086303;28;20024;-55
2020/12/21 13:01:09;;;;;;;2.90;1.80;;;;;;;;;;5085650;28;20561;-56
2020/12/21 13:03:35;;;;;;;4.07;1.98;;;;;;;;;;5086040;28;20083;-56
2020/12/21 13:06:02;;;;;;;2.60;1.75;;;;;;;;;;5068881;28;20032;-53
2020/12/21 13:08:30;;;;;;;2.70;1.70;;;;;;;;;;5067057;28;20032;-55
2020/12/21 13:10:56;;;;;;;1.48;1.38;;;;;;;;;;5064881;28;20443;-55
2020/12/21 13:13:23;;;;;;;2.35;1.73;;;;;;;;;;5066077;28;20029;-54
2020/12/21 13:15:49;;;;;;;2.65;1.85;;;;;;;;;;5065823;28;20031;-53
2020/12/21 13:18:15;;;;;;;3.53;2.00;;;;;;;;;;5066256;28;20021;-56
2020/12/21 13:20:41;;;;;;;3.35;1.75;;;;;;;;;;5065718;28;20474;-55
2020/12/21 13:23:07;;;;;;;4.28;2.50;;;;;;;;;;5066098;28;20028;-55
2020/12/21 13:25:33;;;;;;;3.13;2.10;;;;;;;;;;5066151;28;20029;-56
2020/12/21 13:27:59;;;;;;;4.03;2.53;;;;;;;;;;5062520;28;20500;-55
2020/12/21 13:30:25;;;;;;;3.08;2.20;;;;;;;;;;5064746;28;20032;-56
2020/12/21 13:32:51;;;;;;;2.90;1.92;;;;;;;;;;5065939;28;20020;-56
2020/12/21 13:35:17;;;;;;;2.85;1.65;;;;;;;;;;5060584;28;20052;-56
2020/12/21 13:37:44;;;;;;;2.92;1.83;;;;;;;;;;5065116;28;20059;-56
2020/12/21 13:40:11;;;;;;;3.25;2.15;;;;;;;;;;5064193;28;20033;-56
2020/12/21 13:42:38;;;;;;;3.50;2.08;;;;;;;;;;5064315;28;20025;-55
2020/12/21 13:45:06;;;;;;;3.28;2.05;;;;;;;;;;5065554;28;20051;-55
2020/12/21 13:47:32;;;;;;;2.72;1.75;;;;;;;;;;5065712;28;20029;-56
2020/12/21 13:49:59;;;;;;;2.05;1.42;;;;;;;;;;5066172;28;20116;-56
2020/12/21 13:52:26;;;;;;;2.88;1.73;;;;;;;;;;5064607;28;20482;-56
2020/12/21 13:54:52;;;;;;;2.17;1.50;;;;;;;;;;5064898;28;20048;-56
2020/12/21 13:57:18;;;;;;;2.35;1.67;;;;;;;;;;5065061;28;20032;-56
2020/12/21 13:59:44;;;;;;;2.00;1.65;;;;;;;;;;5065105;28;20032;-56
2020/12/21 14:02:11;;;;;;;3.05;1.92;;;;;;;;;;5065150;28;20029;-55
2020/12/21 14:04:37;;;;;;;3.13;2.05;;;;;;;;;;5064963;28;20020;-54
2020/12/21 14:07:04;;;;;;;4.28;2.85;;;;;;;;;;5065040;28;20082;-54
2020/12/21 14:09:30;;;;;;;3.05;2.00;;;;;;;;;;5065395;28;20039;-56
2020/12/21 14:11:56;;;;;;;4.10;2.80;;;;;;;;;;5064554;28;20028;-54
2020/12/21 14:14:23;;;;;;;5.20;3.10;;;;;;;;;;5064758;28;20470;-53
2020/12/21 14:16:49;;;;;;;8.23;4.50;;;;;;;;;;5064812;28;20453;-54
2020/12/21 14:19:15;;;;;;;6.22;3.38;;;;;;;;;;5064961;28;20543;-54
2020/12/21 14:21:41;;;;;;;6.60;3.08;;;;;;;;;;5064544;28;20490;-55
2020/12/21 14:24:08;;;;;;;5.40;2.53;;;;;;;;;;5064780;28;20035;-55
2020/12/21 14:26:35;;;;;;;5.13;2.65;;;;;;;;;;5064480;28;20059;-55
2020/12/21 14:29:01;;;;;;;4.55;2.70;;;;;;;;;;5065464;28;20032;-56
2020/12/21 14:31:31;;;;;;;4.05;2.67;;;;;;;;;;5064524;28;20485;-55
2020/12/21 14:33:57;;;;;;;4.07;2.65;;;;;;;;;;5064628;28;20025;-55
2020/12/21 14:36:24;;;;;;;4.63;2.70;;;;;;;;;;5064967;28;20329;-55
2020/12/21 14:38:50;;;;;;;5.78;3.17;;;;;;;;;;5064405;28;20017;-55
2020/12/21 14:41:17;;;;;;;7.22;3.53;;;;;;;;;;5064508;28;20031;-54